Time;durP1;ratioP1;P1;durP2;ratioP2;P2;SDS_P1;SDS_P2;PMS_P1;PMS_P2;Temp;Humidity;BMP_temperature;BMP_pressure;BME280_temperature;BME280_humidity;BME280_pressure;Samples;Min_cycle;Max_cycle;Signal;HPM_P1;HPM_P2
2022/03/29 00:01:00;;;;;;;4.85;3.45;;;;;;;9.09;56.32;100334.41;5030225;28;20045;-72
2022/03/29 00:03:26;;;;;;;5.70;3.65;;;;;;;9.05;56.24;100333.84;5021304;28;20034;-72
2022/03/29 00:05:51;;;;;;;6.25;3.92;;;;;;;9.02;56.36;100322.78;5031448;28;20040;-72
2022/03/29 00:08:18;;;;;;;5.65;3.70;;;;;;;8.99;56.21;100321.25;5026545;28;20167;-72
2022/03/29 00:10:44;;;;;;;7.55;4.45;;;;;;;9.01;56.32;100323.72;5027801;28;20417;-71
2022/03/29 00:13:10;;;;;;;7.78;4.78;;;;;;;9.02;56.69;100320.13;5025946;28;20498;-70
2022/03/29 00:15:35;;;;;;;8.95;5.22;;;;;;;9.06;56.60;100313.59;5029409;28;20052;-70
2022/03/29 00:18:00;;;;;;;7.75;4.93;;;;;;;9.09;56.21;100311.47;5029660;28;20045;-73
2022/03/29 00:20:26;;;;;;;7.05;4.65;;;;;;;9.08;56.27;100304.56;5030947;28;20033;-70
2022/03/29 00:22:51;;;;;;;6.57;4.38;;;;;;;9.06;56.01;100306.50;5031536;28;20038;-70
2022/03/29 00:25:17;;;;;;;6.18;4.00;;;;;;;9.03;56.06;100300.69;5030983;28;20033;-72
2022/03/29 00:27:42;;;;;;;6.60;4.03;;;;;;;9.01;55.96;100300.84;5031109;28;20068;-70
2022/03/29 00:30:11;;;;;;;5.78;3.95;;;;;;;9.00;56.05;100301.81;5031059;28;20033;-73
2022/03/29 00:32:37;;;;;;;5.50;3.67;;;;;;;9.02;55.90;100289.31;5030345;28;20044;-72
2022/03/29 00:35:03;;;;;;;9.48;4.93;;;;;;;9.06;56.13;100289.84;5025689;28;20034;-70
2022/03/29 00:37:28;;;;;;;7.80;5.20;;;;;;;9.15;56.06;100288.94;5029031;28;20045;-70
2022/03/29 00:39:53;;;;;;;7.82;5.40;;;;;;;9.23;55.73;100280.31;5030314;28;20040;-70
2022/03/29 00:42:19;;;;;;;8.23;4.82;;;;;;;9.27;55.47;100285.16;5029938;28;20040;-73
2022/03/29 00:44:45;;;;;;;6.32;3.85;;;;;;;9.23;55.15;100281.13;5030891;28;20067;-71
2022/03/29 00:47:10;;;;;;;5.90;3.90;;;;;;;9.20;55.18;100280.59;5030686;28;20037;-71
2022/03/29 00:49:36;;;;;;;7.53;3.45;;;;;;;9.18;55.31;100278.13;5034273;28;20037;-71
2022/03/29 00:52:03;;;;;;;6.40;4.10;;;;;;;9.16;55.29;100279.25;5030531;28;20280;-72
2022/03/29 00:54:32;;;;;;;5.78;3.72;;;;;;;9.12;55.29;100279.53;5031855;28;20108;-72
2022/03/29 00:56:58;;;;;;;6.35;3.72;;;;;;;9.05;55.70;100275.00;5032004;28;20029;-72
2022/03/29 00:59:25;;;;;;;6.20;4.10;;;;;;;9.00;55.65;100270.16;5028700;28;20042;-71
2022/03/29 01:01:51;;;;;;;6.10;3.78;;;;;;;8.93;55.67;100269.09;5028131;28;20033;-72
2022/03/29 01:04:16;;;;;;;6.53;3.97;;;;;;;8.90;55.80;100269.41;5029844;28;20047;-72
2022/03/29 01:06:44;;;;;;;5.30;3.50;;;;;;;8.88;55.69;100271.34;5026960;28;20026;-72
2022/03/29 01:09:13;;;;;;;5.05;3.35;;;;;;;8.85;55.88;100269.84;5029847;28;20476;-71
2022/03/29 01:11:39;;;;;;;5.22;2.90;;;;;;;8.81;55.92;100259.72;5030190;28;20456;-72
2022/03/29 01:14:04;;;;;;;6.18;3.95;;;;;;;8.78;56.14;100260.84;5026964;28;20030;-73
2022/03/29 01:19:17;;;;;;;8.43;5.57;;;;;;;8.85;56.32;100261.94;5028072;28;20044;-71
2022/03/29 01:21:59;;;;;;;10.30;6.50;;;;;;;8.90;56.86;100259.66;5025067;28;20169;-71
2022/03/29 01:24:26;;;;;;;12.48;7.28;;;;;;;8.97;56.60;100252.00;5027235;28;20061;-71
2022/03/29 01:27:00;;;;;;;9.95;6.15;;;;;;;9.01;56.06;100261.28;5025780;28;20030;-71
2022/03/29 01:29:28;;;;;;;8.48;5.40;;;;;;;9.01;56.02;100255.16;5039419;28;20083;-70
2022/03/29 01:31:55;;;;;;;8.25;5.30;;;;;;;9.02;55.97;100259.47;5028226;28;20122;-71
2022/03/29 01:34:21;;;;;;;9.35;5.63;;;;;;;9.02;56.15;100252.38;5028214;28;20401;-71
2022/03/29 01:36:47;;;;;;;11.30;5.90;;;;;;;9.05;56.22;100248.63;5030440;28;20041;-71
2022/03/29 01:39:12;;;;;;;9.23;5.30;;;;;;;9.05;56.12;100243.34;5030319;28;20049;-71
2022/03/29 01:41:41;;;;;;;9.55;5.72;;;;;;;9.09;56.18;100236.81;5019393;28;20033;-71
2022/03/29 01:44:10;;;;;;;8.65;5.43;;;;;;;9.07;56.02;100244.84;5030217;28;20042;-71
2022/03/29 01:46:36;;;;;;;8.75;5.57;;;;;;;9.01;56.53;100241.97;5029160;28;20095;-71
2022/03/29 01:49:02;;;;;;;7.40;4.72;;;;;;;8.91;56.36;100232.34;5038869;28;20033;-71
2022/03/29 01:51:28;;;;;;;7.40;5.00;;;;;;;8.86;56.44;100236.38;5028735;28;20034;-71
2022/03/29 01:53:56;;;;;;;7.28;4.65;;;;;;;8.83;56.50;100241.97;5023527;28;20033;-71
2022/03/29 01:56:25;;;;;;;6.80;4.40;;;;;;;8.78;56.49;100237.13;5030065;28;20054;-71
2022/03/29 01:58:50;;;;;;;6.90;4.70;;;;;;;8.73;56.68;100235.91;5030302;28;20592;-71
2022/03/29 02:01:16;;;;;;;5.88;3.92;;;;;;;8.68;56.78;100237.19;5025193;28;20126;-71
2022/03/29 02:03:41;;;;;;;6.18;4.20;;;;;;;8.64;56.84;100238.44;5024110;28;20040;-71
2022/03/29 02:06:08;;;;;;;6.03;3.78;;;;;;;8.61;56.77;100228.19;5029495;28;20037;-71
2022/03/29 02:08:33;;;;;;;6.07;4.07;;;;;;;8.58;56.82;100231.13;5030079;28;20116;-71
2022/03/29 02:10:59;;;;;;;5.93;3.97;;;;;;;8.54;57.22;100223.66;5030051;28;20120;-70
2022/03/29 02:13:24;;;;;;;7.22;5.03;;;;;;;8.51;57.40;100222.16;5029184;28;20558;-71
2022/03/29 02:15:49;;;;;;;8.65;4.90;;;;;;;8.53;57.85;100224.63;5029632;28;20043;-71
2022/03/29 02:18:15;;;;;;;8.00;5.18;;;;;;;8.54;57.26;100216.59;5029164;28;20111;-71
2022/03/29 02:20:40;;;;;;;8.68;4.80;;;;;;;8.56;57.19;100214.63;5027968;28;20143;-71
2022/03/29 02:23:07;;;;;;;7.60;4.80;;;;;;;8.59;57.09;100208.25;5032033;28;20039;-71
2022/03/29 02:25:33;;;;;;;8.85;4.80;;;;;;;8.56;57.21;100212.00;5029436;28;20371;-71
2022/03/29 02:27:59;;;;;;;9.48;5.80;;;;;;;8.55;57.42;100209.50;5031571;28;20131;-71
2022/03/29 02:30:25;;;;;;;7.68;4.95;;;;;;;8.55;57.20;100209.50;5029519;28;21135;-71
2022/03/29 02:32:51;;;;;;;7.22;4.88;;;;;;;8.50;57.17;100208.13;5029011;28;20725;-71
2022/03/29 02:35:16;;;;;;;7.70;4.72;;;;;;;8.47;57.39;100200.53;5028185;28;20128;-71
2022/03/29 02:37:42;;;;;;;8.80;5.53;;;;;;;8.44;58.11;100195.56;5028922;28;20051;-71
2022/03/29 02:40:09;;;;;;;11.45;7.22;;;;;;;8.50;57.95;100192.31;5017807;28;20231;-71
2022/03/29 02:42:42;;;;;;;10.68;6.80;;;;;;;8.56;57.82;100193.56;5016863;28;20034;-71
2022/03/29 02:45:09;;;;;;;11.68;6.97;;;;;;;8.58;57.74;100190.75;5025797;28;20498;-71
2022/03/29 02:47:35;;;;;;;9.18;5.90;;;;;;;8.54;57.88;100181.50;5019964;28;20025;-71
2022/03/29 02:50:00;;;;;;;9.60;6.22;;;;;;;8.52;57.90;100181.63;5030860;28;20518;-70
2022/03/29 02:52:25;;;;;;;8.32;5.70;;;;;;;8.51;57.68;100169.44;5026886;28;20486;-72
2022/03/29 02:54:50;;;;;;;10.70;6.60;;;;;;;8.49;58.37;100163.50;5027842;28;20037;-72
2022/03/29 02:57:16;;;;;;;10.05;7.05;;;;;;;8.49;58.36;100166.94;5028523;28;20529;-70
2022/03/29 02:59:41;;;;;;;11.43;7.32;;;;;;;8.48;58.53;100165.28;5028602;28;20068;-70
2022/03/29 03:02:06;;;;;;;12.95;7.68;;;;;;;8.54;58.06;100163.06;5027082;28;20025;-73
2022/03/29 03:04:32;;;;;;;11.15;6.68;;;;;;;8.56;57.94;100161.09;5028341;28;20117;-72
2022/03/29 03:06:58;;;;;;;11.40;6.28;;;;;;;8.54;58.18;100158.59;5028593;28;20026;-72
2022/03/29 03:09:23;;;;;;;7.85;4.97;;;;;;;8.48;58.02;100162.63;5028467;28;20034;-71
2022/03/29 03:11:48;;;;;;;9.10;5.25;;;;;;;8.41;58.16;100161.56;5026850;28;20040;-71
2022/03/29 03:14:13;;;;;;;8.68;5.60;;;;;;;8.36;57.99;100161.16;5024362;28;20049;-71
2022/03/29 03:16:39;;;;;;;9.43;5.60;;;;;;;8.33;58.12;100160.63;5016049;28;20037;-71
2022/03/29 03:19:04;;;;;;;9.48;5.28;;;;;;;8.29;57.89;100162.72;5027917;28;20425;-71
2022/03/29 03:21:29;;;;;;;9.40;5.43;;;;;;;8.26;58.04;100155.09;5032711;28;20028;-71
2022/03/29 03:23:55;;;;;;;12.40;7.28;;;;;;;8.27;58.03;100152.34;5034285;28;20037;-71
2022/03/29 03:26:20;;;;;;;11.55;7.50;;;;;;;8.29;58.47;100154.81;5028213;28;20037;-71
2022/03/29 03:28:45;;;;;;;12.27;7.22;;;;;;;8.29;58.40;100153.03;5032048;28;20034;-71
2022/03/29 03:31:10;;;;;;;11.40;6.22;;;;;;;8.25;58.15;100146.38;5014636;28;20531;-71
2022/03/29 03:33:36;;;;;;;7.65;5.15;;;;;;;8.21;58.09;100152.09;5026368;28;20410;-72
2022/03/29 03:36:01;;;;;;;9.50;5.35;;;;;;;8.15;58.41;100150.03;5029858;28;20037;-73
2022/03/29 03:38:26;;;;;;;6.53;4.43;;;;;;;8.09;58.45;100146.19;5029634;28;20041;-71
2022/03/29 03:40:52;;;;;;;7.88;5.03;;;;;;;8.04;58.47;100136.06;5023118;28;20045;-72
2022/03/29 03:43:17;;;;;;;7.93;4.65;;;;;;;7.98;58.75;100141.91;5025677;28;20061;-71
2022/03/29 03:45:42;;;;;;;5.70;3.80;;;;;;;7.93;58.76;100138.06;5033176;28;20037;-71
2022/03/29 03:48:08;;;;;;;6.57;4.15;;;;;;;7.86;58.93;100137.78;5039204;28;20128;-70
2022/03/29 03:50:33;;;;;;;6.93;3.95;;;;;;;7.79;59.14;100137.53;5023657;28;20687;-71
2022/03/29 03:53:00;;;;;;;6.68;3.70;;;;;;;7.72;59.33;100139.09;5031285;28;20065;-71
2022/03/29 03:55:26;;;;;;;8.40;4.10;;;;;;;7.68;59.52;100132.47;5032712;28;20040;-71
2022/03/29 03:57:51;;;;;;;7.32;4.85;;;;;;;7.66;59.90;100139.66;5032515;28;20033;-71
2022/03/29 04:00:17;;;;;;;10.90;5.80;;;;;;;7.64;60.39;100133.72;5030835;28;20040;-72
2022/03/29 04:02:42;;;;;;;7.97;4.97;;;;;;;7.60;60.59;100127.06;5027070;28;20052;-71
2022/03/29 04:05:12;;;;;;;7.13;4.75;;;;;;;7.59;60.50;100120.16;5024675;28;20026;-71
2022/03/29 04:07:37;;;;;;;7.82;4.38;;;;;;;7.58;60.59;100113.22;5028634;28;20041;-72
2022/03/29 04:10:03;;;;;;;6.55;4.35;;;;;;;7.56;60.45;100110.75;5030956;28;20541;-72
2022/03/29 04:12:28;;;;;;;6.70;3.63;;;;;;;7.58;60.39;100107.97;5030230;28;20045;-71
2022/03/29 04:14:54;;;;;;;5.85;3.50;;;;;;;7.59;60.47;100107.00;5031383;28;20041;-71
2022/03/29 04:17:19;;;;;;;7.13;4.15;;;;;;;7.57;60.61;100108.94;5031156;28;20106;-73
2022/03/29 04:19:45;;;;;;;6.47;3.95;;;;;;;7.55;60.54;100109.06;5025825;28;20043;-72
2022/03/29 04:22:10;;;;;;;5.93;4.03;;;;;;;7.54;60.47;100114.50;5032477;28;20048;-73
2022/03/29 04:24:36;;;;;;;5.47;3.45;;;;;;;7.53;60.36;100108.41;5031621;28;20367;-72
2022/03/29 04:27:01;;;;;;;5.03;3.42;;;;;;;7.51;60.52;100109.50;5022475;28;20514;-72
2022/03/29 04:29:27;;;;;;;5.07;3.45;;;;;;;7.48;60.52;100101.91;5030390;28;20048;-72
2022/03/29 04:31:52;;;;;;;6.57;4.15;;;;;;;7.46;61.13;100109.97;5032087;28;20076;-72
2022/03/29 04:34:18;;;;;;;8.20;5.47;;;;;;;7.44;61.38;100107.47;5024940;28;20037;-72
2022/03/29 04:36:43;;;;;;;8.73;5.38;;;;;;;7.42;61.71;100104.13;5026743;28;20049;-72
2022/03/29 04:39:08;;;;;;;8.35;5.30;;;;;;;7.40;61.80;100107.88;5030468;28;20112;-72
2022/03/29 04:41:34;;;;;;;11.00;6.45;;;;;;;7.37;61.99;100106.38;5031713;28;20044;-72
2022/03/29 04:43:59;;;;;;;10.07;6.20;;;;;;;7.37;62.17;100108.16;5029621;28;20046;-71
2022/03/29 04:46:25;;;;;;;11.20;6.93;;;;;;;7.34;62.88;100113.69;5030756;28;20081;-71
2022/03/29 04:48:53;;;;;;;7.40;5.50;;;;;;;7.31;62.78;100114.81;5033968;28;20034;-71
2022/03/29 04:51:19;;;;;;;7.57;5.22;;;;;;;7.29;62.66;100119.38;5030417;28;20064;-71
2022/03/29 04:53:44;;;;;;;7.50;5.32;;;;;;;7.25;62.57;100115.38;5029471;28;20030;-71
2022/03/29 04:56:09;;;;;;;9.50;5.93;;;;;;;7.25;62.65;100111.94;5029470;28;20433;-71
2022/03/29 04:58:35;;;;;;;12.38;6.25;;;;;;;7.21;63.25;100100.84;5027175;28;20029;-71
2022/03/29 05:01:00;;;;;;;10.40;6.55;;;;;;;7.19;63.56;100100.16;5029006;28;20040;-71
2022/03/29 05:03:26;;;;;;;10.65;7.35;;;;;;;7.18;63.97;100095.88;5029551;28;20045;-71
2022/03/29 05:05:51;;;;;;;13.93;8.30;;;;;;;7.18;63.81;100101.13;5027468;28;20201;-71
2022/03/29 05:08:16;;;;;;;9.70;6.60;;;;;;;7.16;63.82;100095.19;5030068;28;20033;-71
2022/03/29 05:10:42;;;;;;;9.75;6.35;;;;;;;7.16;63.73;100103.06;5030173;28;20041;-71
2022/03/29 05:13:09;;;;;;;8.27;6.00;;;;;;;7.13;63.84;100093.66;5027847;28;20126;-71
2022/03/29 05:15:35;;;;;;;8.73;5.40;;;;;;;7.09;63.83;100097.53;5023368;28;20091;-71
2022/03/29 05:18:00;;;;;;;7.60;5.20;;;;;;;7.05;63.66;100090.88;5029177;28;20038;-71
2022/03/29 05:20:25;;;;;;;7.63;5.28;;;;;;;7.06;63.94;100089.13;5027883;28;20534;-72
2022/03/29 05:22:52;;;;;;;7.13;4.50;;;;;;;7.06;63.97;100095.19;5032317;28;20064;-72
2022/03/29 05:25:19;;;;;;;6.80;4.32;;;;;;;7.05;63.93;100098.78;5021362;28;20045;-71
2022/03/29 05:27:46;;;;;;;6.45;4.60;;;;;;;7.05;64.01;100090.88;5027896;28;20041;-71
2022/03/29 05:30:12;;;;;;;7.47;4.53;;;;;;;7.05;63.99;100090.06;5029773;28;20042;-73
2022/03/29 05:32:38;;;;;;;6.60;4.32;;;;;;;7.04;63.98;100089.25;5030406;28;20044;-71
2022/03/29 05:35:07;;;;;;;6.70;4.63;;;;;;;7.04;63.92;100096.31;5029210;28;20037;-73
2022/03/29 05:37:32;;;;;;;7.43;4.95;;;;;;;7.04;64.01;100105.00;5029373;28;20057;-72
2022/03/29 05:39:58;;;;;;;6.40;4.43;;;;;;;7.06;64.13;100100.44;5031496;28;20485;-72
2022/03/29 05:42:23;;;;;;;6.55;4.13;;;;;;;7.08;64.15;100101.16;5030057;28;20036;-72
2022/03/29 05:44:48;;;;;;;6.15;4.03;;;;;;;7.10;64.46;100101.81;5031234;28;20038;-72
2022/03/29 05:49:58;;;;;;;7.63;4.85;;;;;;;7.12;64.34;100099.06;5031397;28;20045;-72
2022/03/29 05:52:24;;;;;;;7.22;4.88;;;;;;;7.17;64.47;100102.91;5030143;28;20325;-72
2022/03/29 05:54:49;;;;;;;7.40;4.45;;;;;;;7.21;64.49;100100.84;5029722;28;20120;-71
2022/03/29 05:57:15;;;;;;;5.97;4.20;;;;;;;7.31;64.33;100101.66;5031318;28;20095;-71
2022/03/29 05:59:41;;;;;;;5.07;3.67;;;;;;;7.38;64.22;100105.38;5031256;28;20494;-72
2022/03/29 06:02:08;;;;;;;6.97;4.80;;;;;;;7.45;64.07;100103.03;5029991;28;20143;-72
2022/03/29 06:04:34;;;;;;;7.00;4.50;;;;;;;7.55;64.18;100109.06;5030584;28;20512;-73
2022/03/29 06:06:59;;;;;;;7.63;4.72;;;;;;;7.66;64.06;100110.72;5028521;28;20057;-72
2022/03/29 06:09:25;;;;;;;6.55;4.32;;;;;;;7.78;63.96;100114.00;5029457;28;20068;-72
2022/03/29 06:11:50;;;;;;;5.30;3.90;;;;;;;7.88;63.72;100109.53;5026408;28;20033;-72
2022/03/29 06:14:16;;;;;;;6.03;3.92;;;;;;;8.02;63.75;100116.13;5030442;28;20041;-73
2022/03/29 06:16:42;;;;;;;5.13;3.60;;;;;;;8.15;63.42;100116.63;5029162;28;20537;-72
2022/03/29 06:19:11;;;;;;;5.20;3.08;;;;;;;8.29;63.38;100105.63;5015869;28;20057;-72
2022/03/29 06:21:37;;;;;;;5.88;3.42;;;;;;;8.44;63.33;100108.59;5028407;28;20044;-72
2022/03/29 06:24:04;;;;;;;6.43;4.18;;;;;;;8.54;63.83;100111.16;5028917;28;20078;-72
2022/03/29 06:26:30;;;;;;;8.05;4.85;;;;;;;8.60;63.60;100109.72;5028768;28;20041;-72
2022/03/29 06:28:56;;;;;;;6.03;4.40;;;;;;;8.74;63.23;100113.66;5029338;28;20492;-72
2022/03/29 06:31:21;;;;;;;6.93;4.70;;;;;;;8.87;62.85;100109.69;5026598;28;20169;-72
2022/03/29 06:33:47;;;;;;;6.38;4.18;;;;;;;9.01;62.82;100118.03;5028688;28;20048;-72
2022/03/29 06:36:13;;;;;;;6.40;4.10;;;;;;;9.12;62.63;100110.72;5028630;28;20037;-73
2022/03/29 06:38:38;;;;;;;5.85;4.22;;;;;;;9.27;62.53;100113.66;5019567;28;20041;-72
2022/03/29 06:41:03;;;;;;;5.35;3.97;;;;;;;9.40;62.47;100117.69;5026872;28;20578;-72
2022/03/29 06:43:29;;;;;;;7.05;4.35;;;;;;;9.56;62.39;100108.06;5029495;28;20048;-72
2022/03/29 06:45:55;;;;;;;7.80;4.75;;;;;;;9.72;61.87;100115.25;5029128;28;20038;-73
2022/03/29 06:48:20;;;;;;;7.35;4.75;;;;;;;9.90;61.55;100123.09;5027222;28;20030;-72
2022/03/29 06:50:46;;;;;;;6.55;4.57;;;;;;;10.11;61.28;100121.91;5029336;28;20383;-72
2022/03/29 06:53:11;;;;;;;11.27;6.80;;;;;;;10.32;60.68;100130.25;5025643;28;20043;-72
2022/03/29 06:55:37;;;;;;;12.05;7.43;;;;;;;10.50;60.08;100121.38;5027088;28;20439;-72
2022/03/29 06:58:03;;;;;;;12.88;8.50;;;;;;;10.62;59.30;100123.56;5025401;28;20033;-72
2022/03/29 07:00:28;;;;;;;12.40;8.10;;;;;;;10.78;58.97;100124.59;5024360;28;20068;-72
2022/03/29 07:02:54;;;;;;;10.45;7.07;;;;;;;10.98;58.62;100125.09;5033310;28;20040;-72
2022/03/29 07:05:19;;;;;;;10.57;7.10;;;;;;;11.16;58.54;100119.66;5021696;28;20341;-72
2022/03/29 07:07:45;;;;;;;7.70;5.68;;;;;;;11.34;58.43;100120.31;5012912;28;20065;-72
2022/03/29 07:12:57;;;;;;;9.20;5.30;;;;;;;11.80;57.69;100117.94;5030570;28;20040;-72
2022/03/29 07:15:23;;;;;;;7.55;5.38;;;;;;;11.99;57.53;100118.53;5029696;28;20030;-72
2022/03/29 07:17:50;;;;;;;10.27;7.10;;;;;;;12.15;57.23;100115.84;5025427;28;20156;-72
2022/03/29 07:20:16;;;;;;;14.25;9.45;;;;;;;12.14;56.63;100116.03;5010776;28;20546;-71
2022/03/29 07:22:43;;;;;;;14.80;9.50;;;;;;;12.36;56.16;100119.72;5029594;28;20044;-72
2022/03/29 07:25:08;;;;;;;14.43;10.02;;;;;;;12.59;55.54;100109.19;5032483;28;20037;-71
2022/03/29 07:27:34;;;;;;;17.42;10.57;;;;;;;12.75;55.23;100114.34;5031420;28;20088;-72
2022/03/29 07:30:00;;;;;;;15.73;9.60;;;;;;;12.99;55.01;100115.19;5025648;28;20383;-72
2022/03/29 07:32:27;;;;;;;13.30;9.05;;;;;;;13.31;54.71;100125.56;5029666;28;20048;-72
2022/03/29 07:34:54;;;;;;;13.90;8.88;;;;;;;13.45;53.87;100126.63;5027759;28;20065;-72
2022/03/29 07:37:20;;;;;;;10.98;8.48;;;;;;;13.59;53.47;100132.97;5036854;28;20442;-72
2022/03/29 07:39:46;;;;;;;13.30;8.80;;;;;;;13.65;53.37;100120.78;5031097;28;20034;-72
2022/03/29 07:42:12;;;;;;;11.45;7.68;;;;;;;13.92;53.67;100124.63;5024730;28;20104;-72
2022/03/29 07:44:37;;;;;;;11.27;8.20;;;;;;;14.17;52.60;100126.00;5036044;28;20126;-72
2022/03/29 07:47:03;;;;;;;13.50;8.38;;;;;;;14.44;52.42;100123.66;5020050;28;20037;-72
2022/03/29 07:49:29;;;;;;;12.90;9.52;;;;;;;14.60;51.69;100122.66;5032696;28;20134;-72
2022/03/29 07:51:55;;;;;;;11.65;8.63;;;;;;;14.67;50.86;100120.06;5032200;28;20041;-72
2022/03/29 07:54:21;;;;;;;13.55;8.35;;;;;;;14.82;50.53;100123.50;5032263;28;20108;-72
2022/03/29 07:56:46;;;;;;;12.77;8.55;;;;;;;14.94;50.27;100124.63;5032782;28;20041;-72
2022/03/29 07:59:12;;;;;;;11.45;8.00;;;;;;;15.26;50.36;100123.31;5031354;28;20042;-72
2022/03/29 08:01:37;;;;;;;12.70;8.65;;;;;;;15.70;50.13;100119.53;5032062;28;20044;-72
2022/03/29 08:04:03;;;;;;;9.95;6.47;;;;;;;16.19;49.76;100117.78;5032238;28;20036;-72
2022/03/29 08:06:29;;;;;;;14.90;9.20;;;;;;;16.64;49.13;100109.31;5030034;28;20050;-72
2022/03/29 08:08:55;;;;;;;10.40;7.20;;;;;;;17.02;48.91;100109.63;5040212;28;20039;-72
2022/03/29 08:11:22;;;;;;;11.55;7.50;;;;;;;17.28;48.29;100102.63;5039238;28;20124;-72
2022/03/29 08:13:47;;;;;;;13.68;9.27;;;;;;;17.34;46.69;100102.63;5030443;28;20033;-72
2022/03/29 08:16:13;;;;;;;12.18;8.88;;;;;;;17.38;46.79;100093.16;5032499;28;20040;-72
2022/03/29 08:18:39;;;;;;;13.02;8.27;;;;;;;17.76;46.59;100094.34;5031739;28;20116;-72
2022/03/29 08:21:47;;;;;;;11.40;8.38;;;;;;;18.32;46.01;100091.06;5032865;28;20095;-73
2022/03/29 08:23:50;;;;;;;15.40;10.23;;;;;;;18.63;44.03;100095.66;5037502;28;20037;-73
2022/03/29 08:26:16;;;;;;;17.45;10.90;;;;;;;18.77;43.70;100095.59;5032244;28;20506;-73
2022/03/29 08:28:41;;;;;;;15.07;11.05;;;;;;;18.64;43.10;100097.31;5026224;28;20037;-73
2022/03/29 08:31:06;;;;;;;17.85;11.50;;;;;;;18.53;42.44;100091.81;5042196;28;20040;-72
2022/03/29 08:33:32;;;;;;;16.52;10.48;;;;;;;18.85;42.30;100089.97;5020862;28;20095;-72
2022/03/29 08:35:57;;;;;;;14.23;9.77;;;;;;;19.04;41.48;100083.69;5030899;28;20049;-72
2022/03/29 08:38:22;;;;;;;18.15;12.30;;;;;;;19.04;41.11;100082.81;5029884;28;20042;-73
2022/03/29 08:40:49;;;;;;;16.05;11.65;;;;;;;19.13;39.87;100080.72;5026587;28;20065;-73
2022/03/29 08:43:15;;;;;;;17.45;10.43;;;;;;;19.50;40.05;100078.94;5011555;28;20246;-72
2022/03/29 08:45:46;;;;;;;15.98;10.70;;;;;;;19.71;39.87;100081.22;5018208;28;20037;-73
2022/03/29 08:48:12;;;;;;;;;;;;;;;20.12;39.42;100081.59;5038941;28;20037;-73
2022/03/29 08:50:39;;;;;;;11.87;8.37;;;;;;;20.60;39.07;100077.28;5038959;28;20370;-73
2022/03/29 08:53:07;;;;;;;13.63;8.50;;;;;;;21.19;38.74;100080.91;5031244;28;20482;-73
2022/03/29 08:55:33;;;;;;;11.15;7.75;;;;;;;21.73;37.85;100078.91;5029522;28;20026;-73
2022/03/29 08:57:58;;;;;;;13.63;8.73;;;;;;;22.00;36.91;100087.28;5012312;28;20041;-73
2022/03/29 09:00:24;;;;;;;11.13;7.93;;;;;;;22.66;36.23;100089.66;5029344;28;20037;-73
2022/03/29 09:02:50;;;;;;;12.27;7.85;;;;;;;22.96;35.55;100086.66;5027985;28;20037;-73
2022/03/29 09:05:20;;;;;;;13.40;9.95;;;;;;;23.20;33.77;100083.84;5025140;28;20053;-73
2022/03/29 09:07:47;;;;;;;13.57;9.18;;;;;;;23.35;34.07;100085.94;5023363;28;20043;-73
2022/03/29 09:10:13;;;;;;;9.93;7.43;;;;;;;24.00;33.73;100076.31;5026201;28;20041;-73
2022/03/29 09:12:39;;;;;;;14.85;9.38;;;;;;;24.16;32.87;100070.03;5028136;28;20219;-73
2022/03/29 09:15:05;;;;;;;11.00;7.85;;;;;;;24.34;33.11;100071.59;5025058;28;20038;-73
2022/03/29 09:17:36;;;;;;;10.32;8.00;;;;;;;24.61;32.80;100076.22;5020651;28;20040;-73
2022/03/29 09:20:16;;;;;;;11.82;8.77;;;;;;;25.30;31.93;100072.75;5029562;28;20030;-73
2022/03/29 09:22:47;;;;;;;12.73;8.73;;;;;;;25.76;31.09;100081.94;5015165;28;20041;-73
2022/03/29 09:25:14;;;;;;;13.35;9.38;;;;;;;26.03;30.24;100079.13;5031269;28;20068;-73
2022/03/29 09:27:57;;;;;;;11.48;8.20;;;;;;;26.26;29.96;100082.44;5028547;28;20398;-73
2022/03/29 09:30:24;;;;;;;14.18;8.68;;;;;;;26.45;29.51;100074.63;5029075;28;20029;-73
2022/03/29 09:32:58;;;;;;;13.75;10.55;;;;;;;26.05;28.65;100071.56;5026961;28;20494;-73
2022/03/29 09:35:24;;;;;;;13.60;9.88;;;;;;;25.73;29.29;100068.94;5026507;28;20041;-73
2022/03/29 09:37:49;;;;;;;17.40;11.10;;;;;;;25.33;28.96;100062.22;5023505;28;20045;-73
2022/03/29 09:40:16;;;;;;;14.98;10.93;;;;;;;24.63;29.51;100061.38;5024944;28;20041;-73
2022/03/29 09:42:42;;;;;;;17.65;10.73;;;;;;;24.58;29.69;100064.03;5025621;28;20128;-72
2022/03/29 09:45:08;;;;;;;19.55;13.00;;;;;;;24.85;29.46;100060.47;5029599;28;20609;-73
2022/03/29 09:47:34;;;;;;;20.17;13.95;;;;;;;25.00;28.94;100053.31;5031949;28;20033;-75
2022/03/29 09:50:08;;;;;;;15.05;10.88;;;;;;;25.31;28.68;100056.25;5032096;28;20034;-74
2022/03/29 09:52:40;;;;;;;15.50;11.57;;;;;;;25.83;28.13;100050.03;5030000;28;20048;-73
2022/03/29 09:55:09;;;;;;;17.00;12.05;;;;;;;25.89;28.24;100058.22;5034044;28;20045;-73
2022/03/29 09:57:41;;;;;;;14.77;11.10;;;;;;;25.80;28.28;100055.16;5026403;28;20061;-73
2022/03/29 10:00:08;;;;;;;15.43;11.95;;;;;;;25.61;28.56;100050.19;5028207;28;20120;-73
2022/03/29 10:02:40;;;;;;;19.08;13.70;;;;;;;25.06;28.78;100039.81;5030355;28;20041;-74
2022/03/29 10:05:06;;;;;;;19.77;14.15;;;;;;;24.89;29.06;100045.38;5017540;28;20069;-74
2022/03/29 10:07:42;;;;;;;16.92;12.63;;;;;;;25.11;29.03;100048.78;5023197;28;20037;-74
2022/03/29 10:10:08;;;;;;;21.10;15.00;;;;;;;25.71;28.37;100035.88;5021733;28;20234;-74
2022/03/29 10:12:34;;;;;;;16.20;11.02;;;;;;;26.50;27.88;100031.25;5012219;28;20033;-74
2022/03/29 10:15:01;;;;;;;14.85;10.50;;;;;;;27.08;26.92;100028.31;5039351;28;20299;-74
2022/03/29 10:17:27;;;;;;;18.30;13.00;;;;;;;27.62;26.26;100026.84;5048709;28;20029;-74
2022/03/29 10:19:55;;;;;;;14.60;10.70;;;;;;;28.01;26.16;100021.53;5032103;28;20045;-73
2022/03/29 10:22:20;;;;;;;13.93;10.20;;;;;;;28.44;25.99;100019.09;5022153;28;20060;-74
2022/03/29 10:24:45;;;;;;;16.13;10.75;;;;;;;28.83;24.93;100020.16;5023181;28;20025;-74
2022/03/29 10:27:11;;;;;;;14.70;11.02;;;;;;;28.25;25.49;100008.06;5020234;28;20304;-73
2022/03/29 10:29:40;;;;;;;18.75;13.32;;;;;;;27.71;25.29;100006.16;5026531;28;20038;-74
2022/03/29 10:32:05;;;;;;;15.60;11.13;;;;;;;27.53;26.18;100005.69;5025374;28;20033;-74
2022/03/29 10:34:39;;;;;;;15.25;12.07;;;;;;;27.49;25.61;100001.91;5025037;28;20033;-74
2022/03/29 10:37:09;;;;;;;16.65;11.38;;;;;;;28.25;25.53;99993.66;5028415;28;20052;-74
2022/03/29 10:40:04;;;;;;;11.60;9.23;;;;;;;29.28;24.79;99983.53;5026186;28;20050;-74
2022/03/29 10:42:43;;;;;;;22.40;14.95;;;;;;;29.62;23.08;99972.47;5030850;28;20502;-74
2022/03/29 10:45:25;;;;;;;17.25;11.23;;;;;;;29.50;23.61;99971.28;5028662;28;20037;-74
2022/03/29 10:47:53;;;;;;;15.07;10.98;;;;;;;29.43;23.93;99966.19;5024096;28;20033;-74
2022/03/29 10:50:19;;;;;;;21.45;13.90;;;;;;;28.96;23.79;99954.16;5026944;28;20038;-74
2022/03/29 10:52:49;;;;;;;19.70;13.65;;;;;;;29.53;23.49;99957.91;5024103;28;20445;-74
2022/03/29 10:55:28;;;;;;;19.63;14.70;;;;;;;29.85;22.78;99943.59;5025827;28;20383;-74
2022/03/29 10:58:12;;;;;;;19.08;13.88;;;;;;;29.15;23.23;99938.75;5019046;28;20041;-74
2022/03/29 11:00:45;;;;;;;19.00;13.88;;;;;;;28.12;24.20;99932.56;5008730;28;20038;-75
2022/03/29 11:03:21;;;;;;;20.05;14.20;;;;;;;27.88;24.89;99925.13;5011621;28;20406;-74
2022/03/29 11:06:08;;;;;;;17.40;13.43;;;;;;;27.72;25.04;99920.84;5030163;28;20072;-74
2022/03/29 11:08:42;;;;;;;22.55;14.73;;;;;;;27.40;25.18;99910.44;5026035;28;20116;-74
2022/03/29 11:11:28;;;;;;;15.88;11.13;;;;;;;27.37;25.78;99900.94;5037862;28;20033;-75
2022/03/29 11:13:54;;;;;;;14.80;11.48;;;;;;;27.11;26.00;99903.72;5033631;28;20029;-74
2022/03/29 11:16:25;;;;;;;17.42;11.65;;;;;;;26.90;26.38;99897.53;5044770;28;20107;-74
2022/03/29 11:18:51;;;;;;;22.40;15.70;;;;;;;25.58;27.50;99898.31;5035244;28;20112;-74
2022/03/29 11:21:33;;;;;;;20.27;14.45;;;;;;;25.58;27.80;99888.28;5038649;28;20045;-74
2022/03/29 11:24:00;;;;;;;14.93;10.65;;;;;;;25.89;27.38;99891.09;5063717;28;20048;-74
2022/03/29 11:26:27;;;;;;;23.63;16.50;;;;;;;25.48;27.47;99885.56;5022198;28;20059;-74
2022/03/29 11:28:56;;;;;;;20.70;14.27;;;;;;;25.15;27.68;99873.22;5035836;28;20120;-74
2022/03/29 11:31:23;;;;;;;15.20;10.65;;;;;;;25.28;27.61;99875.47;5059580;28;20035;-74